Time;durP1;ratioP1;P1;durP2;ratioP2;P2;SDS_P1;SDS_P2;PMS_P1;PMS_P2;Temp;Humidity;BMP_temperature;BMP_pressure;BME280_temperature;BME280_humidity;BME280_pressure;Samples;Min_cycle;Max_cycle;Signal;HPM_P1;HPM_P2
2021/08/15 00:01:11;;;;;;;;;;;18.40;76.50;;;;;;5083307;28;19951;-75
2021/08/15 00:03:37;;;;;;;;;;;18.40;76.50;;;;;;5082664;28;20358;-75
2021/08/15 00:06:02;;;;;;;;;;;18.40;77.00;;;;;;5083114;28;19931;-76
2021/08/15 00:08:27;;;;;;;;;;;18.30;77.10;;;;;;5082917;28;19930;-72
2021/08/15 00:10:53;;;;;;;;;;;18.30;77.30;;;;;;5081745;28;19919;-70
2021/08/15 00:13:18;;;;;;;;;;;18.30;77.70;;;;;;5082790;28;20326;-70
2021/08/15 00:15:44;;;;;;;;;;;18.20;78.30;;;;;;5083263;28;20333;-71
2021/08/15 00:18:09;;;;;;;;;;;18.20;78.40;;;;;;5082955;28;19908;-71
2021/08/15 00:20:34;;;;;;;;;;;18.20;78.80;;;;;;5082195;28;19916;-71
2021/08/15 00:23:00;;;;;;;;;;;18.20;78.80;;;;;;5082380;28;19909;-71
2021/08/15 00:25:26;;;;;;;;;;;18.10;79.20;;;;;;5082732;28;19913;-71
2021/08/15 00:27:52;;;;;;;;;;;18.10;79.20;;;;;;5082801;28;19912;-71
2021/08/15 00:30:18;;;;;;;;;;;18.10;79.40;;;;;;5081930;28;20448;-71
2021/08/15 00:32:44;;;;;;;;;;;18.10;79.40;;;;;;5082670;28;19969;-71
2021/08/15 00:35:10;;;;;;;;;;;18.10;79.60;;;;;;5082478;28;19916;-71
2021/08/15 00:37:36;;;;;;;;;;;18.10;80.10;;;;;;5082050;28;19916;-71
2021/08/15 00:40:03;;;;;;;;;;;18.00;80.20;;;;;;5082370;28;20271;-71
2021/08/15 00:42:28;;;;;;;;;;;18.00;80.50;;;;;;5082342;28;19973;-71
2021/08/15 00:44:54;;;;;;;;;;;18.00;80.60;;;;;;5082177;28;20355;-71
2021/08/15 00:47:19;;;;;;;;;;;18.00;80.90;;;;;;5081047;28;19913;-71
2021/08/15 00:49:45;;;;;;;;;;;17.90;81.00;;;;;;5082412;28;19909;-71
2021/08/15 00:52:10;;;;;;;;;;;17.80;81.20;;;;;;5082169;28;19917;-71
2021/08/15 00:54:36;;;;;;;;;;;17.80;81.70;;;;;;5081921;28;19920;-71
2021/08/15 00:57:02;;;;;;;;;;;17.80;81.80;;;;;;5082413;28;20347;-67
2021/08/15 00:59:27;;;;;;;;;;;17.70;81.90;;;;;;5081900;28;19915;-67
2021/08/15 01:01:53;;;;;;;;;;;17.70;82.40;;;;;;5082043;28;20260;-67
2021/08/15 01:04:20;;;;;;;;;;;17.70;82.60;;;;;;5081591;28;19908;-67
2021/08/15 01:06:47;;;;;;;;;;;17.70;82.80;;;;;;5081936;28;19974;-70
2021/08/15 01:09:12;;;;;;;;;;;17.70;83.10;;;;;;5081844;28;19912;-70
2021/08/15 01:11:37;;;;;;;;;;;17.60;83.30;;;;;;5081249;28;19989;-70
2021/08/15 01:14:05;;;;;;;;;;;17.60;83.50;;;;;;5081920;28;20313;-70
2021/08/15 01:16:31;;;;;;;;;;;17.60;83.50;;;;;;5081661;28;19970;-70
2021/08/15 01:18:56;;;;;;;;;;;17.60;83.90;;;;;;5081311;28;19912;-70
2021/08/15 01:21:22;;;;;;;;;;;17.50;84.00;;;;;;5081184;28;19970;-70
2021/08/15 01:23:47;;;;;;;;;;;17.50;84.00;;;;;;5081267;28;19908;-70
2021/08/15 01:26:14;;;;;;;;;;;17.50;84.30;;;;;;5081593;28;19963;-70
2021/08/15 01:28:39;;;;;;;;;;;17.50;84.60;;;;;;5081100;28;20390;-70
2021/08/15 01:31:06;;;;;;;;;;;17.50;84.60;;;;;;5081125;28;19912;-70
2021/08/15 01:33:33;;;;;;;;;;;17.40;84.80;;;;;;5080275;28;19963;-70
2021/08/15 01:35:59;;;;;;;;;;;17.40;84.80;;;;;;5081303;28;20375;-70
2021/08/15 01:38:26;;;;;;;;;;;17.40;84.90;;;;;;5081351;28;20010;-71
2021/08/15 01:40:52;;;;;;;;;;;17.30;85.10;;;;;;5080713;28;20375;-71
2021/08/15 01:43:18;;;;;;;;;;;17.30;85.40;;;;;;5081018;28;19915;-71
2021/08/15 01:45:43;;;;;;;;;;;17.30;85.30;;;;;;5081385;28;19973;-71
2021/08/15 01:48:09;;;;;;;;;;;17.30;85.80;;;;;;5081237;28;19915;-71
2021/08/15 01:50:35;;;;;;;;;;;17.20;85.90;;;;;;5080864;28;19920;-71
2021/08/15 01:53:00;;;;;;;;;;;17.20;86.10;;;;;;5079675;28;20295;-71
2021/08/15 01:55:26;;;;;;;;;;;17.20;85.20;;;;;;5080928;28;19923;-71
2021/08/15 01:57:51;;;;;;;;;;;17.20;85.80;;;;;;5081099;28;19912;-71
2021/08/15 02:00:17;;;;;;;;;;;17.20;86.60;;;;;;5080762;28;20371;-71
2021/08/15 02:02:43;;;;;;;;;;;17.10;86.90;;;;;;5080837;28;19908;-71
2021/08/15 02:05:09;;;;;;;;;;;17.10;87.20;;;;;;5080678;28;20038;-71
2021/08/15 02:07:34;;;;;;;;;;;17.10;86.90;;;;;;5080724;28;20283;-71
2021/08/15 02:10:00;;;;;;;;;;;17.00;87.40;;;;;;5080846;28;19912;-71
2021/08/15 02:12:25;;;;;;;;;;;17.00;87.50;;;;;;5080644;28;19915;-71
2021/08/15 02:14:50;;;;;;;;;;;16.90;88.00;;;;;;5080659;28;20402;-71
2021/08/15 02:17:16;;;;;;;;;;;16.90;88.10;;;;;;5080718;28;19912;-71
2021/08/15 02:19:41;;;;;;;;;;;16.90;88.60;;;;;;5080243;28;19915;-71
2021/08/15 02:22:07;;;;;;;;;;;16.80;88.50;;;;;;5080888;28;19915;-71
2021/08/15 02:24:32;;;;;;;;;;;16.80;88.50;;;;;;5080389;28;19939;-68
2021/08/15 02:26:58;;;;;;;;;;;16.80;88.40;;;;;;5080521;28;19989;-68
2021/08/15 02:29:23;;;;;;;;;;;16.80;88.30;;;;;;5079147;28;19909;-68
2021/08/15 02:31:49;;;;;;;;;;;16.80;88.60;;;;;;5079990;28;19913;-68
2021/08/15 02:34:14;;;;;;;;;;;16.80;88.90;;;;;;5080726;28;19912;-71
2021/08/15 02:36:39;;;;;;;;;;;16.80;89.10;;;;;;5080373;28;19912;-71
2021/08/15 02:39:05;;;;;;;;;;;16.70;88.90;;;;;;5080925;28;19912;-71
2021/08/15 02:41:30;;;;;;;;;;;16.70;88.90;;;;;;5078414;28;20004;-71
2021/08/15 02:43:56;;;;;;;;;;;16.70;89.00;;;;;;5080805;28;19999;-71
2021/08/15 02:46:21;;;;;;;;;;;16.60;89.30;;;;;;5079824;28;19909;-71
2021/08/15 02:48:47;;;;;;;;;;;16.60;89.40;;;;;;5080397;28;19947;-76
2021/08/15 02:51:12;;;;;;;;;;;16.60;89.60;;;;;;5080527;28;20437;-71
2021/08/15 02:53:38;;;;;;;;;;;16.60;89.70;;;;;;5080154;28;19966;-71
2021/08/15 02:56:03;;;;;;;;;;;16.60;90.00;;;;;;5080589;28;20248;-71
2021/08/15 02:58:29;;;;;;;;;;;16.50;90.10;;;;;;5079731;28;20279;-72
2021/08/15 03:00:54;;;;;;;;;;;16.50;90.10;;;;;;5080322;28;19912;-72
2021/08/15 03:03:20;;;;;;;;;;;16.50;90.10;;;;;;5079604;28;19908;-72
2021/08/15 03:05:45;;;;;;;;;;;16.50;90.10;;;;;;5080438;28;19912;-71
2021/08/15 03:08:10;;;;;;;;;;;16.50;90.20;;;;;;5080299;28;19908;-71
2021/08/15 03:10:36;;;;;;;;;;;16.40;90.20;;;;;;5080054;28;19954;-71
2021/08/15 03:13:05;;;;;;;;;;;16.40;90.30;;;;;;5080377;28;19940;-71
2021/08/15 03:15:31;;;;;;;;;;;16.40;90.30;;;;;;5080189;28;19912;-71
2021/08/15 03:17:57;;;;;;;;;;;16.40;90.30;;;;;;5079486;28;20414;-71
2021/08/15 03:20:22;;;;;;;;;;;16.40;90.30;;;;;;5080215;28;20003;-71
2021/08/15 03:22:47;;;;;;;;;;;16.30;90.50;;;;;;5080015;28;19915;-71
2021/08/15 03:25:13;;;;;;;;;;;16.40;90.70;;;;;;5080204;28;19912;-71
2021/08/15 03:27:38;;;;;;;;;;;16.30;90.80;;;;;;5079819;28;20278;-71
2021/08/15 03:30:04;;;;;;;;;;;16.30;90.70;;;;;;5078727;28;19913;-72
2021/08/15 03:32:29;;;;;;;;;;;16.30;90.80;;;;;;5080113;28;19939;-71
2021/08/15 03:34:55;;;;;;;;;;;16.20;90.70;;;;;;5079921;28;19917;-77
2021/08/15 03:37:20;;;;;;;;;;;16.20;90.70;;;;;;5079592;28;19967;-76
2021/08/15 03:39:46;;;;;;;;;;;16.20;90.60;;;;;;5079557;28;20086;-77
2021/08/15 03:42:11;;;;;;;;;;;16.20;90.90;;;;;;5079671;28;20423;-76
2021/08/15 03:44:37;;;;;;;;;;;16.20;90.90;;;;;;5079995;28;20364;-77
2021/08/15 03:47:02;;;;;;;;;;;16.10;90.90;;;;;;5079876;28;19912;-77
2021/08/15 03:49:28;;;;;;;;;;;16.10;90.70;;;;;;5079811;28;19908;-76
2021/08/15 03:51:54;;;;;;;;;;;16.10;91.00;;;;;;5079593;28;19991;-76
2021/08/15 03:54:20;;;;;;;;;;;16.10;91.20;;;;;;5079063;28;20010;-67
2021/08/15 03:56:46;;;;;;;;;;;16.00;91.20;;;;;;5080013;28;20007;-67
2021/08/15 03:59:12;;;;;;;;;;;16.00;91.20;;;;;;5083016;28;19913;-68
2021/08/15 04:01:37;;;;;;;;;;;16.00;91.10;;;;;;5083110;28;20272;-76
2021/08/15 04:04:03;;;;;;;;;;;16.00;91.10;;;;;;5081840;28;19913;-76
2021/08/15 04:06:28;;;;;;;;;;;16.00;90.80;;;;;;5082927;28;19954;-76
2021/08/15 04:08:54;;;;;;;;;;;16.00;91.00;;;;;;5083508;28;19989;-75
2021/08/15 04:11:19;;;;;;;;;;;16.00;91.10;;;;;;5082813;28;19909;-76
2021/08/15 04:13:45;;;;;;;;;;;16.00;91.50;;;;;;5082294;28;20029;-76
2021/08/15 04:16:11;;;;;;;;;;;16.00;91.60;;;;;;5083171;28;20286;-71
2021/08/15 04:18:36;;;;;;;;;;;16.00;91.70;;;;;;5082948;28;19934;-71
2021/08/15 04:21:02;;;;;;;;;;;16.10;91.70;;;;;;5082826;28;19909;-71
2021/08/15 04:23:27;;;;;;;;;;;16.10;91.70;;;;;;5082192;28;19934;-71
2021/08/15 04:25:53;;;;;;;;;;;16.20;91.70;;;;;;5082745;28;19995;-71
2021/08/15 04:28:18;;;;;;;;;;;16.20;91.60;;;;;;5082154;28;19912;-71
2021/08/15 04:30:44;;;;;;;;;;;16.30;91.40;;;;;;5082866;28;19965;-71
2021/08/15 04:33:09;;;;;;;;;;;16.30;91.30;;;;;;5080923;28;19924;-71
2021/08/15 04:35:34;;;;;;;;;;;16.20;91.50;;;;;;5082648;28;19912;-68
2021/08/15 04:38:00;;;;;;;;;;;16.20;91.60;;;;;;5082566;28;20398;-68
2021/08/15 04:40:25;;;;;;;;;;;16.20;91.40;;;;;;5082371;28;20054;-68
2021/08/15 04:42:51;;;;;;;;;;;16.20;91.40;;;;;;5082308;28;19919;-77
2021/08/15 04:45:16;;;;;;;;;;;16.20;91.60;;;;;;5082432;28;19912;-76
2021/08/15 04:47:41;;;;;;;;;;;16.20;91.60;;;;;;5082484;28;19919;-76
2021/08/15 04:50:07;;;;;;;;;;;16.20;91.60;;;;;;5082398;28;19908;-76
2021/08/15 04:52:32;;;;;;;;;;;16.20;91.60;;;;;;5082124;28;19935;-76
2021/08/15 04:54:58;;;;;;;;;;;16.20;91.70;;;;;;5082243;28;20397;-77
2021/08/15 04:57:23;;;;;;;;;;;16.20;91.60;;;;;;5080704;28;19912;-76
2021/08/15 04:59:49;;;;;;;;;;;16.30;91.60;;;;;;5082341;28;19915;-77
2021/08/15 05:02:14;;;;;;;;;;;16.30;91.60;;;;;;5080259;28;19923;-76
2021/08/15 05:04:40;;;;;;;;;;;16.30;91.50;;;;;;5082313;28;19912;-77
2021/08/15 05:07:05;;;;;;;;;;;16.30;91.40;;;;;;5082022;28;20358;-76
2021/08/15 05:09:31;;;;;;;;;;;16.40;91.30;;;;;;5081638;28;19920;-76
2021/08/15 05:11:56;;;;;;;;;;;16.40;91.20;;;;;;5081861;28;19912;-76
2021/08/15 05:14:22;;;;;;;;;;;16.50;91.20;;;;;;5081692;28;20375;-71
2021/08/15 05:16:47;;;;;;;;;;;16.50;91.10;;;;;;5082048;28;19908;-71
2021/08/15 05:19:12;;;;;;;;;;;16.50;91.00;;;;;;5081821;28;20031;-71
2021/08/15 05:21:38;;;;;;;;;;;16.60;91.10;;;;;;5080297;28;19912;-71
2021/08/15 05:24:03;;;;;;;;;;;16.60;91.00;;;;;;5081130;28;19954;-68
2021/08/15 05:26:29;;;;;;;;;;;16.70;90.90;;;;;;5081459;28;19917;-68
2021/08/15 05:28:54;;;;;;;;;;;16.70;90.80;;;;;;5080324;28;19931;-68
2021/08/15 05:31:20;;;;;;;;;;;16.70;90.90;;;;;;5081615;28;20282;-68
2021/08/15 05:33:45;;;;;;;;;;;16.70;90.80;;;;;;5081214;28;19923;-68
2021/08/15 05:36:10;;;;;;;;;;;16.70;90.70;;;;;;5081611;28;19912;-67
2021/08/15 05:38:36;;;;;;;;;;;16.80;90.70;;;;;;5081212;28;19916;-68
2021/08/15 05:41:01;;;;;;;;;;;16.70;90.60;;;;;;5062981;28;19915;-68
2021/08/15 05:43:27;;;;;;;;;;;16.80;90.60;;;;;;5079903;28;20276;-68
2021/08/15 05:45:52;;;;;;;;;;;16.90;90.40;;;;;;5081436;28;19908;-68
2021/08/15 05:48:18;;;;;;;;;;;16.90;90.40;;;;;;5079640;28;19912;-68
2021/08/15 05:50:44;;;;;;;;;;;17.00;90.40;;;;;;5082190;28;20367;-70
2021/08/15 05:53:09;;;;;;;;;;;17.10;90.30;;;;;;5081122;28;19936;-70
2021/08/15 05:55:34;;;;;;;;;;;17.20;90.20;;;;;;5080892;28;19932;-70
2021/08/15 05:58:00;;;;;;;;;;;17.30;90.00;;;;;;5081202;28;20235;-70
2021/08/15 06:00:25;;;;;;;;;;;17.40;89.70;;;;;;5080830;28;20370;-71
2021/08/15 06:02:51;;;;;;;;;;;17.60;89.70;;;;;;5080533;28;19908;-71
2021/08/15 06:05:17;;;;;;;;;;;17.70;89.20;;;;;;5080688;28;19912;-71
2021/08/15 06:07:42;;;;;;;;;;;17.80;89.00;;;;;;5080852;28;19909;-71
2021/08/15 06:10:08;;;;;;;;;;;17.90;88.80;;;;;;5080749;28;19909;-72
2021/08/15 06:12:34;;;;;;;;;;;18.10;88.50;;;;;;5080255;28;19918;-71
2021/08/15 06:15:00;;;;;;;;;;;18.20;88.00;;;;;;5080781;28;20353;-72
2021/08/15 06:17:26;;;;;;;;;;;18.20;87.40;;;;;;5080622;28;19958;-71
2021/08/15 06:19:53;;;;;;;;;;;18.40;87.30;;;;;;5080473;28;19916;-70
2021/08/15 06:22:18;;;;;;;;;;;18.50;87.10;;;;;;5080610;28;19915;-71
2021/08/15 06:24:44;;;;;;;;;;;18.60;86.40;;;;;;5080626;28;19912;-71
2021/08/15 06:27:10;;;;;;;;;;;18.70;86.00;;;;;;5080980;28;19931;-71
2021/08/15 06:29:35;;;;;;;;;;;18.90;85.80;;;;;;5080518;28;19991;-71
2021/08/15 06:32:01;;;;;;;;;;;19.00;85.50;;;;;;5080549;28;20019;-71
2021/08/15 06:34:26;;;;;;;;;;;19.10;85.20;;;;;;5078951;28;19952;-71
2021/08/15 06:36:52;;;;;;;;;;;19.10;84.80;;;;;;5080634;28;19908;-71
2021/08/15 06:39:17;;;;;;;;;;;19.10;84.60;;;;;;5080498;28;19912;-68
2021/08/15 06:41:43;;;;;;;;;;;19.20;84.60;;;;;;5079150;28;19931;-67
2021/08/15 06:44:08;;;;;;;;;;;19.20;84.50;;;;;;5080330;28;19919;-67
2021/08/15 06:46:34;;;;;;;;;;;19.20;84.50;;;;;;5080452;28;19912;-67
2021/08/15 06:48:59;;;;;;;;;;;19.10;84.80;;;;;;5078518;28;20385;-70
2021/08/15 06:51:24;;;;;;;;;;;19.20;84.80;;;;;;5080157;28;19916;-70
2021/08/15 06:53:50;;;;;;;;;;;19.40;84.70;;;;;;5080053;28;19912;-70
2021/08/15 06:56:15;;;;;;;;;;;19.50;84.20;;;;;;5080651;28;19919;-71
2021/08/15 06:58:41;;;;;;;;;;;19.60;84.00;;;;;;5080231;28;19912;-71
2021/08/15 07:01:06;;;;;;;;;;;19.70;83.90;;;;;;5080539;28;19917;-71
2021/08/15 07:03:32;;;;;;;;;;;19.80;83.90;;;;;;5080085;28;20011;-71
2021/08/15 07:05:57;;;;;;;;;;;20.00;83.30;;;;;;5079859;28;20423;-71
2021/08/15 07:08:23;;;;;;;;;;;20.10;82.90;;;;;;5079984;28;20348;-71
2021/08/15 07:10:48;;;;;;;;;;;20.20;82.50;;;;;;5079656;28;19908;-71
2021/08/15 07:13:16;;;;;;;;;;;20.30;82.30;;;;;;5079930;28;20375;-71
2021/08/15 07:15:42;;;;;;;;;;;20.40;82.10;;;;;;5080065;28;19915;-71
2021/08/15 07:18:08;;;;;;;;;;;20.50;81.90;;;;;;5078625;28;19999;-71
2021/08/15 07:20:33;;;;;;;;;;;20.60;81.30;;;;;;5078489;28;19945;-71
2021/08/15 07:22:59;;;;;;;;;;;20.80;81.00;;;;;;5080180;28;19913;-71
2021/08/15 07:25:28;;;;;;;;;;;20.90;80.80;;;;;;5079723;28;19908;-70
2021/08/15 07:27:53;;;;;;;;;;;21.10;80.60;;;;;;5079758;28;19919;-71
2021/08/15 07:30:18;;;;;;;;;;;21.30;80.10;;;;;;5080648;28;20271;-71
2021/08/15 07:32:48;;;;;;;;;;;21.40;79.30;;;;;;5081740;28;19920;-71
2021/08/15 07:35:13;;;;;;;;;;;21.50;79.10;;;;;;5084118;28;19916;-71
2021/08/15 07:37:39;;;;;;;;;;;21.50;78.60;;;;;;5082385;28;20000;-71
2021/08/15 07:40:05;;;;;;;;;;;21.50;78.30;;;;;;5083481;28;19952;-71
2021/08/15 07:42:30;;;;;;;;;;;21.70;78.20;;;;;;5082261;28;19912;-71
2021/08/15 07:44:55;;;;;;;;;;;21.80;77.60;;;;;;5083624;28;20109;-71
2021/08/15 07:47:21;;;;;;;;;;;21.90;77.30;;;;;;5083485;28;19934;-71
2021/08/15 07:49:46;;;;;;;;;;;21.90;77.30;;;;;;5082089;28;19915;-71
2021/08/15 07:52:12;;;;;;;;;;;22.10;77.00;;;;;;5082993;28;19986;-71
2021/08/15 07:54:37;;;;;;;;;;;22.10;76.60;;;;;;5082992;28;19917;-70
2021/08/15 07:57:03;;;;;;;;;;;22.00;75.80;;;;;;5083732;28;19942;-70
2021/08/15 07:59:28;;;;;;;;;;;22.00;75.90;;;;;;5083104;28;19912;-70
2021/08/15 08:01:54;;;;;;;;;;;22.00;75.60;;;;;;5083274;28;19908;-70
2021/08/15 08:04:19;;;;;;;;;;;22.00;75.70;;;;;;5083203;28;19912;-70
2021/08/15 08:06:45;;;;;;;;;;;22.10;75.50;;;;;;5082014;28;19916;-70
2021/08/15 08:09:10;;;;;;;;;;;22.10;75.50;;;;;;5083435;28;19919;-75
2021/08/15 08:11:36;;;;;;;;;;;22.20;76.00;;;;;;5083476;28;19991;-75
2021/08/15 08:14:01;;;;;;;;;;;22.30;75.00;;;;;;5082526;28;20011;-75
2021/08/15 08:16:26;;;;;;;;;;;22.40;74.50;;;;;;5082804;28;19919;-75
2021/08/15 08:18:53;;;;;;;;;;;22.50;73.90;;;;;;5082962;28;19914;-75
2021/08/15 08:21:19;;;;;;;;;;;22.50;73.50;;;;;;5082663;28;19962;-75
2021/08/15 08:23:44;;;;;;;;;;;22.60;73.60;;;;;;5082936;28;19916;-75
2021/08/15 08:26:10;;;;;;;;;;;22.70;73.50;;;;;;5082885;28;19969;-75
2021/08/15 08:28:35;;;;;;;;;;;22.70;73.00;;;;;;5082238;28;20482;-75
2021/08/15 08:31:00;;;;;;;;;;;22.60;72.70;;;;;;5082876;28;19909;-75
2021/08/15 08:33:27;;;;;;;;;;;22.60;72.80;;;;;;5082268;28;19967;-75
2021/08/15 08:35:53;;;;;;;;;;;22.60;73.20;;;;;;5082620;28;20007;-76
2021/08/15 08:38:18;;;;;;;;;;;22.60;73.00;;;;;;5082486;28;20479;-75
2021/08/15 08:40:46;;;;;;;;;;;22.50;72.90;;;;;;5080982;28;19943;-76
2021/08/15 08:43:12;;;;;;;;;;;22.60;73.00;;;;;;5081578;28;20363;-75
2021/08/15 08:45:39;;;;;;;;;;;22.60;73.00;;;;;;5082086;28;19961;-75
2021/08/15 08:48:05;;;;;;;;;;;22.60;72.80;;;;;;5082383;28;20314;-75
2021/08/15 08:50:30;;;;;;;;;;;22.60;73.00;;;;;;5081638;28;19908;-76
2021/08/15 08:52:57;;;;;;;;;;;22.80;72.80;;;;;;5082227;28;19915;-75
2021/08/15 08:55:22;;;;;;;;;;;22.90;72.50;;;;;;5081876;28;19916;-75
2021/08/15 08:57:48;;;;;;;;;;;23.00;72.30;;;;;;5082346;28;19909;-75
2021/08/15 09:00:14;;;;;;;;;;;23.20;72.30;;;;;;5082059;28;19934;-75
2021/08/15 09:02:39;;;;;;;;;;;23.30;72.00;;;;;;5082000;28;19919;-76
2021/08/15 09:05:06;;;;;;;;;;;23.50;71.80;;;;;;5081972;28;19913;-75
2021/08/15 09:07:35;;;;;;;;;;;23.60;71.70;;;;;;5081330;28;19908;-75
2021/08/15 09:10:02;;;;;;;;;;;23.70;71.40;;;;;;5082259;28;19916;-75
2021/08/15 09:12:33;;;;;;;;;;;23.70;71.20;;;;;;5081833;28;19917;-72
2021/08/15 09:15:13;;;;;;;;;;;23.70;71.00;;;;;;5081389;28;19912;-71
2021/08/15 09:17:39;;;;;;;;;;;23.60;70.80;;;;;;5081608;28;19950;-71
2021/08/15 09:20:06;;;;;;;;;;;23.60;70.70;;;;;;5081184;28;19915;-71
2021/08/15 09:22:35;;;;;;;;;;;23.60;70.60;;;;;;5081313;28;20313;-71
2021/08/15 09:25:02;;;;;;;;;;;23.60;70.20;;;;;;5081322;28;19974;-71
2021/08/15 09:27:30;;;;;;;;;;;23.70;70.20;;;;;;5081060;28;20342;-71
2021/08/15 09:30:09;;;;;;;;;;;23.80;69.30;;;;;;5081278;28;19908;-71
2021/08/15 09:32:36;;;;;;;;;;;23.90;69.00;;;;;;5081076;28;20371;-71
2021/08/15 09:35:02;;;;;;;;;;;24.00;69.20;;;;;;5081447;28;19985;-71
2021/08/15 09:37:32;;;;;;;;;;;24.10;68.70;;;;;;5080923;28;20334;-71
2021/08/15 09:39:57;;;;;;;;;;;24.10;68.30;;;;;;5079364;28;19912;-71
2021/08/15 09:42:42;;;;;;;;;;;24.10;68.10;;;;;;5081362;28;19917;-71
2021/08/15 09:45:15;;;;;;;;;;;24.10;67.40;;;;;;5081362;28;19913;-71
2021/08/15 09:47:41;;;;;;;;;;;24.00;67.80;;;;;;5080950;28;19912;-71
2021/08/15 09:50:17;;;;;;;;;;;24.00;68.20;;;;;;5081044;28;19920;-76
2021/08/15 09:52:43;;;;;;;;;;;24.10;68.00;;;;;;5080692;28;19908;-76
2021/08/15 09:55:09;;;;;;;;;;;24.10;68.20;;;;;;5079999;28;19912;-75
2021/08/15 09:57:35;;;;;;;;;;;24.30;68.00;;;;;;5081264;28;19912;-76
2021/08/15 10:00:02;;;;;;;;;;;24.30;67.60;;;;;;5081101;28;19908;-76
2021/08/15 10:02:28;;;;;;;;;;;24.40;67.80;;;;;;5080694;28;19908;-76
2021/08/15 10:04:54;;;;;;;;;;;24.50;67.80;;;;;;5080877;28;19920;-76
2021/08/15 10:07:20;;;;;;;;;;;24.70;67.00;;;;;;5080408;28;19931;-76
2021/08/15 10:09:45;;;;;;;;;;;24.70;67.40;;;;;;5080845;28;20371;-76
2021/08/15 10:12:11;;;;;;;;;;;24.90;67.10;;;;;;5080427;28;19908;-76
2021/08/15 10:14:38;;;;;;;;;;;25.00;66.50;;;;;;5080821;28;19959;-76
2021/08/15 10:17:04;;;;;;;;;;;25.00;66.40;;;;;;5080839;28;19912;-76
2021/08/15 10:19:35;;;;;;;;;;;25.10;66.40;;;;;;5080197;28;19912;-76
2021/08/15 10:22:01;;;;;;;;;;;25.20;65.80;;;;;;5080485;28;19935;-72
2021/08/15 10:24:43;;;;;;;;;;;25.30;65.60;;;;;;5079862;28;20376;-71
2021/08/15 10:27:09;;;;;;;;;;;25.50;66.00;;;;;;5080239;28;19908;-71
2021/08/15 10:29:34;;;;;;;;;;;25.90;64.50;;;;;;5080301;28;19915;-71
2021/08/15 10:32:35;;;;;;;;;;;26.20;64.00;;;;;;5079772;28;19916;-71
2021/08/15 10:35:03;;;;;;;;;;;26.20;63.40;;;;;;5037539;28;19917;-71
2021/08/15 10:37:33;;;;;;;;;;;26.30;63.10;;;;;;5071690;28;19952;-71
2021/08/15 10:40:05;;;;;;;;;;;26.20;62.90;;;;;;5080079;28;19956;-71
2021/08/15 10:42:39;;;;;;;;;;;26.20;62.60;;;;;;5080033;28;20371;-71
2021/08/15 10:45:07;;;;;;;;;;;26.20;61.80;;;;;;5080278;28;20280;-71
2021/08/15 10:47:33;;;;;;;;;;;26.20;62.00;;;;;;5080071;28;19913;-71
2021/08/15 10:50:02;;;;;;;;;;;26.30;61.90;;;;;;5080296;28;19912;-71
2021/08/15 10:52:31;;;;;;;;;;;26.50;61.40;;;;;;5079824;28;19961;-71
2021/08/15 10:55:00;;;;;;;;;;;26.80;60.80;;;;;;5080170;28;20026;-71
2021/08/15 10:57:49;;;;;;;;;;;26.90;59.90;;;;;;5079961;28;19915;-72
2021/08/15 11:00:29;;;;;;;;;;;27.10;60.20;;;;;;5071698;28;19967;-72
2021/08/15 11:02:56;;;;;;;;;;;27.30;58.90;;;;;;5080238;28;19909;-71
2021/08/15 11:05:37;;;;;;;;;;;27.40;59.30;;;;;;5080030;28;19990;-71
2021/08/15 11:08:03;;;;;;;;;;;27.60;58.60;;;;;;5084029;28;19913;-71
2021/08/15 11:10:47;;;;;;;;;;;27.60;57.90;;;;;;5084186;28;19908;-71
2021/08/15 11:13:16;;;;;;;;;;;27.60;56.70;;;;;;5084487;28;19998;-71
2021/08/15 11:15:41;;;;;;;;;;;27.50;56.00;;;;;;5083368;28;19909;-71
2021/08/15 11:18:08;;;;;;;;;;;27.30;57.10;;;;;;5082893;28;20274;-71
2021/08/15 11:20:42;;;;;;;;;;;27.30;57.10;;;;;;5083601;28;20382;-71
2021/08/15 11:23:12;;;;;;;;;;;27.30;57.20;;;;;;5083928;28;19989;-71
2021/08/15 11:25:38;;;;;;;;;;;27.30;57.40;;;;;;5083580;28;19944;-76
2021/08/15 11:28:03;;;;;;;;;;;27.30;57.30;;;;;;5084009;28;20012;-76
2021/08/15 11:30:29;;;;;;;;;;;27.20;56.80;;;;;;5082429;28;19939;-76
2021/08/15 11:32:56;;;;;;;;;;;27.20;57.30;;;;;;5083744;28;19962;-78
2021/08/15 11:35:21;;;;;;;;;;;27.30;57.10;;;;;;5082118;28;19916;-76
2021/08/15 11:37:48;;;;;;;;;;;27.50;57.30;;;;;;5083863;28;19913;-77
2021/08/15 11:40:15;;;;;;;;;;;27.50;57.50;;;;;;5083075;28;19918;-77
2021/08/15 11:42:41;;;;;;;;;;;27.70;57.70;;;;;;5083371;28;20437;-77
2021/08/15 11:45:07;;;;;;;;;;;27.90;56.70;;;;;;5083169;28;19955;-77
2021/08/15 11:47:34;;;;;;;;;;;27.90;56.40;;;;;;5083299;28;19913;-77
2021/08/15 11:50:01;;;;;;;;;;;27.90;56.00;;;;;;5083797;28;19912;-72
2021/08/15 11:52:31;;;;;;;;;;;27.90;55.90;;;;;;5082928;28;19913;-71
2021/08/15 11:54:57;;;;;;;;;;;27.90;56.00;;;;;;5083474;28;20019;-71
2021/08/15 11:57:22;;;;;;;;;;;27.90;55.20;;;;;;5083385;28;20339;-71
2021/08/15 11:59:59;;;;;;;;;;;27.90;55.20;;;;;;5083338;28;19919;-71
2021/08/15 12:02:25;;;;;;;;;;;27.90;55.40;;;;;;5083008;28;19909;-71
2021/08/15 12:04:50;;;;;;;;;;;28.00;55.40;;;;;;5082883;28;19968;-72
2021/08/15 12:07:19;;;;;;;;;;;28.00;55.50;;;;;;5082953;28;19954;-77
2021/08/15 12:09:45;;;;;;;;;;;28.10;55.90;;;;;;5083103;28;19908;-77
2021/08/15 12:12:11;;;;;;;;;;;28.30;55.30;;;;;;5082948;28;19962;-77
2021/08/15 12:14:37;;;;;;;;;;;28.40;55.30;;;;;;5082945;28;19951;-77
2021/08/15 12:17:03;;;;;;;;;;;28.40;54.60;;;;;;5082439;28;19915;-77
2021/08/15 12:19:32;;;;;;;;;;;28.30;54.80;;;;;;5082137;28;19909;-73
2021/08/15 12:21:59;;;;;;;;;;;28.20;54.90;;;;;;5082647;28;19923;-72
2021/08/15 12:24:27;;;;;;;;;;;28.20;54.80;;;;;;5082269;28;19912;-72
2021/08/15 12:26:57;;;;;;;;;;;28.30;54.40;;;;;;5082620;28;19972;-72
2021/08/15 12:29:32;;;;;;;;;;;28.20;54.40;;;;;;5081160;28;19913;-72
2021/08/15 12:32:08;;;;;;;;;;;28.20;54.50;;;;;;5082043;28;19961;-72
2021/08/15 12:34:35;;;;;;;;;;;28.20;54.60;;;;;;5082144;28;19916;-72
2021/08/15 12:37:08;;;;;;;;;;;28.10;54.90;;;;;;5082077;28;19914;-72
2021/08/15 12:39:34;;;;;;;;;;;28.30;55.00;;;;;;5080743;28;19965;-72
2021/08/15 12:42:01;;;;;;;;;;;28.50;55.10;;;;;;5082638;28;20271;-72
2021/08/15 12:44:28;;;;;;;;;;;28.60;54.00;;;;;;5082315;28;19913;-72
2021/08/15 12:46:58;;;;;;;;;;;28.60;54.10;;;;;;5082272;28;19912;-72
2021/08/15 12:49:24;;;;;;;;;;;28.60;53.80;;;;;;5082214;28;19975;-72
2021/08/15 12:51:50;;;;;;;;;;;28.70;53.90;;;;;;5081821;28;19908;-71
2021/08/15 12:54:16;;;;;;;;;;;28.80;53.30;;;;;;5082097;28;19912;-71
2021/08/15 12:56:41;;;;;;;;;;;29.00;53.60;;;;;;5080746;28;20058;-72
2021/08/15 12:59:07;;;;;;;;;;;29.00;53.40;;;;;;5082164;28;20375;-71
2021/08/15 13:01:32;;;;;;;;;;;29.10;52.50;;;;;;5081975;28;20125;-71
2021/08/15 13:04:00;;;;;;;;;;;29.30;51.10;;;;;;5082213;28;19908;-72
2021/08/15 13:06:26;;;;;;;;;;;29.40;50.80;;;;;;5082103;28;19908;-72
2021/08/15 13:08:52;;;;;;;;;;;29.60;50.80;;;;;;5081944;28;20264;-72
2021/08/15 13:11:18;;;;;;;;;;;29.70;50.60;;;;;;5081257;28;19909;-72
2021/08/15 13:13:43;;;;;;;;;;;29.70;49.40;;;;;;5081958;28;19912;-72
2021/08/15 13:16:09;;;;;;;;;;;29.60;50.20;;;;;;5081546;28;19909;-72
2021/08/15 13:18:34;;;;;;;;;;;29.60;51.00;;;;;;5081810;28;20386;-72
2021/08/15 13:21:00;;;;;;;;;;;29.60;50.70;;;;;;5081724;28;19914;-72
2021/08/15 13:23:26;;;;;;;;;;;29.50;50.70;;;;;;5081348;28;19912;-72
2021/08/15 13:25:51;;;;;;;;;;;29.40;50.20;;;;;;5081790;28;19912;-72
2021/08/15 13:28:20;;;;;;;;;;;29.30;50.60;;;;;;5081584;28;19923;-72
2021/08/15 13:30:46;;;;;;;;;;;29.20;50.20;;;;;;5081191;28;19943;-72
2021/08/15 13:33:11;;;;;;;;;;;29.10;50.20;;;;;;5081235;28;20434;-72
2021/08/15 13:35:37;;;;;;;;;;;29.10;49.80;;;;;;5081344;28;19917;-72
2021/08/15 13:38:02;;;;;;;;;;;29.10;50.40;;;;;;5081459;28;19995;-72
2021/08/15 13:40:28;;;;;;;;;;;29.10;50.80;;;;;;5081513;28;19966;-72
2021/08/15 13:42:53;;;;;;;;;;;29.10;50.90;;;;;;5080320;28;19912;-72
2021/08/15 13:45:19;;;;;;;;;;;29.00;50.60;;;;;;5080425;28;19908;-72
2021/08/15 13:47:45;;;;;;;;;;;28.90;51.00;;;;;;5081200;28;19913;-72
2021/08/15 13:50:13;;;;;;;;;;;28.90;51.20;;;;;;5081176;28;19954;-72
2021/08/15 13:52:39;;;;;;;;;;;28.80;51.10;;;;;;5080983;28;19912;-72
2021/08/15 13:55:05;;;;;;;;;;;28.80;51.20;;;;;;5081218;28;19919;-72
2021/08/15 13:57:30;;;;;;;;;;;28.80;51.30;;;;;;5080946;28;19955;-72
2021/08/15 13:59:56;;;;;;;;;;;28.80;51.10;;;;;;5081268;28;19908;-72
2021/08/15 14:02:21;;;;;;;;;;;28.80;51.50;;;;;;5080764;28;20290;-72
2021/08/15 14:04:47;;;;;;;;;;;28.80;51.20;;;;;;5081235;28;19915;-72
2021/08/15 14:07:12;;;;;;;;;;;28.70;51.50;;;;;;5079719;28;20325;-72
2021/08/15 14:09:39;;;;;;;;;;;28.80;51.80;;;;;;5080659;28;19909;-72
2021/08/15 14:12:05;;;;;;;;;;;28.90;51.80;;;;;;5080793;28;19997;-72